Terminal Aerodrome Forecast
Issued by NWS

Home | Current Version | Previous Version | Text Only | Print | Product List | Glossary On
Versions: 1 2 3 4 5 6 7 8 9 10 11 12
000
FTUS46 KSEW 301100
TAFBLI
TAF
KBLI 301120Z 3012/3112 17009G18KT P6SM OVC070
     FM301400 18008KT P6SM SCT012 BKN070 OVC250
     FM301800 18009KT P6SM SCT250
     FM310300 17004KT P6SM SCT250=

USA.gov is the U.S. government's official web portal to all federal, state and local government web resources and services.